sensor_id;sensor_type;location;lat;lon;timestamp;temperature;humidity
68924;DHT22;55961;52.156;20.942;2023-06-10T00:01:58;22.80;55.60
68924;DHT22;55961;52.156;20.942;2023-06-10T00:04:26;22.70;55.40
68924;DHT22;55961;52.156;20.942;2023-06-10T00:06:53;22.70;55.20
68924;DHT22;55961;52.156;20.942;2023-06-10T00:09:19;22.70;54.90
68924;DHT22;55961;52.156;20.942;2023-06-10T00:11:47;22.70;54.90
68924;DHT22;55961;52.156;20.942;2023-06-10T00:14:13;22.60;55.00
68924;DHT22;55961;52.156;20.942;2023-06-10T00:16:40;22.60;55.10
68924;DHT22;55961;52.156;20.942;2023-06-10T00:19:06;22.60;55.20
68924;DHT22;55961;52.156;20.942;2023-06-10T00:21:33;22.50;55.30
68924;DHT22;55961;52.156;20.942;2023-06-10T00:24:07;22.50;55.50
68924;DHT22;55961;52.156;20.942;2023-06-10T00:26:41;22.50;55.70
68924;DHT22;55961;52.156;20.942;2023-06-10T00:29:07;22.40;56.00
68924;DHT22;55961;52.156;20.942;2023-06-10T00:31:37;22.40;56.10
68924;DHT22;55961;52.156;20.942;2023-06-10T00:34:03;22.40;56.20
68924;DHT22;55961;52.156;20.942;2023-06-10T00:36:30;22.30;55.90
68924;DHT22;55961;52.156;20.942;2023-06-10T00:38:56;22.30;55.50
68924;DHT22;55961;52.156;20.942;2023-06-10T00:41:23;22.20;54.80
68924;DHT22;55961;52.156;20.942;2023-06-10T00:43:48;22.20;54.50
68924;DHT22;55961;52.156;20.942;2023-06-10T00:46:15;22.10;54.00
68924;DHT22;55961;52.156;20.942;2023-06-10T00:48:43;22.10;53.50
68924;DHT22;55961;52.156;20.942;2023-06-10T00:51:09;22.10;52.90
68924;DHT22;55961;52.156;20.942;2023-06-10T00:53:39;22.00;52.70
68924;DHT22;55961;52.156;20.942;2023-06-10T00:56:06;22.00;52.50
68924;DHT22;55961;52.156;20.942;2023-06-10T00:58:32;21.90;52.30
68924;DHT22;55961;52.156;20.942;2023-06-10T01:00:58;21.90;52.10
68924;DHT22;55961;52.156;20.942;2023-06-10T01:03:24;21.80;51.90
68924;DHT22;55961;52.156;20.942;2023-06-10T01:06:50;21.80;51.40
68924;DHT22;55961;52.156;20.942;2023-06-10T01:11:50;21.70;49.60
68924;DHT22;55961;52.156;20.942;2023-06-10T01:14:18;21.70;48.70
68924;DHT22;55961;52.156;20.942;2023-06-10T01:16:44;21.60;48.20
68924;DHT22;55961;52.156;20.942;2023-06-10T01:19:14;21.50;47.80
68924;DHT22;55961;52.156;20.942;2023-06-10T01:21:43;21.50;47.70
68924;DHT22;55961;52.156;20.942;2023-06-10T01:24:18;21.40;47.50
68924;DHT22;55961;52.156;20.942;2023-06-10T01:26:48;21.40;47.40
68924;DHT22;55961;52.156;20.942;2023-06-10T01:29:25;21.30;47.40
68924;DHT22;55961;52.156;20.942;2023-06-10T01:32:01;21.30;47.20
68924;DHT22;55961;52.156;20.942;2023-06-10T01:34:31;21.30;47.00
68924;DHT22;55961;52.156;20.942;2023-06-10T01:36:58;21.20;46.60
68924;DHT22;55961;52.156;20.942;2023-06-10T01:39:25;21.10;46.60
68924;DHT22;55961;52.156;20.942;2023-06-10T01:41:52;21.10;46.30
68924;DHT22;55961;52.156;20.942;2023-06-10T01:44:22;21.00;46.20
68924;DHT22;55961;52.156;20.942;2023-06-10T01:46:48;21.00;46.20
68924;DHT22;55961;52.156;20.942;2023-06-10T01:49:14;21.00;46.10
68924;DHT22;55961;52.156;20.942;2023-06-10T01:51:41;21.00;46.00
68924;DHT22;55961;52.156;20.942;2023-06-10T01:54:06;20.90;46.00
68924;DHT22;55961;52.156;20.942;2023-06-10T01:56:33;20.90;45.90
68924;DHT22;55961;52.156;20.942;2023-06-10T01:58:59;20.80;45.90
68924;DHT22;55961;52.156;20.942;2023-06-10T02:01:25;20.80;45.80
68924;DHT22;55961;52.156;20.942;2023-06-10T02:03:51;20.80;45.70
68924;DHT22;55961;52.156;20.942;2023-06-10T02:06:17;20.70;45.70
68924;DHT22;55961;52.156;20.942;2023-06-10T02:08:43;20.70;45.80
68924;DHT22;55961;52.156;20.942;2023-06-10T02:11:09;20.60;45.80
68924;DHT22;55961;52.156;20.942;2023-06-10T02:13:35;20.60;46.00
68924;DHT22;55961;52.156;20.942;2023-06-10T02:16:01;20.60;46.00
68924;DHT22;55961;52.156;20.942;2023-06-10T02:18:27;20.50;46.00
68924;DHT22;55961;52.156;20.942;2023-06-10T02:20:54;20.40;46.20
68924;DHT22;55961;52.156;20.942;2023-06-10T02:23:20;20.40;46.20
68924;DHT22;55961;52.156;20.942;2023-06-10T02:25:46;20.40;46.30
68924;DHT22;55961;52.156;20.942;2023-06-10T02:28:14;20.30;46.60
68924;DHT22;55961;52.156;20.942;2023-06-10T02:30:41;20.30;46.50
68924;DHT22;55961;52.156;20.942;2023-06-10T02:33:07;20.30;46.80
68924;DHT22;55961;52.156;20.942;2023-06-10T02:35:37;20.20;46.80
68924;DHT22;55961;52.156;20.942;2023-06-10T02:38:03;20.20;46.90
68924;DHT22;55961;52.156;20.942;2023-06-10T02:40:30;20.10;47.00
68924;DHT22;55961;52.156;20.942;2023-06-10T02:42:56;20.10;47.10
68924;DHT22;55961;52.156;20.942;2023-06-10T02:45:22;20.10;47.40
68924;DHT22;55961;52.156;20.942;2023-06-10T02:47:47;20.00;47.50
68924;DHT22;55961;52.156;20.942;2023-06-10T02:50:13;20.00;47.70
68924;DHT22;55961;52.156;20.942;2023-06-10T02:52:40;19.90;48.00
68924;DHT22;55961;52.156;20.942;2023-06-10T02:55:06;19.90;47.90
68924;DHT22;55961;52.156;20.942;2023-06-10T02:57:32;19.90;48.20
68924;DHT22;55961;52.156;20.942;2023-06-10T02:59:58;19.90;48.30
68924;DHT22;55961;52.156;20.942;2023-06-10T03:02:24;19.80;48.40
68924;DHT22;55961;52.156;20.942;2023-06-10T03:04:57;19.80;48.70
68924;DHT22;55961;52.156;20.942;2023-06-10T03:07:23;19.80;48.90
68924;DHT22;55961;52.156;20.942;2023-06-10T03:09:50;19.70;48.80
68924;DHT22;55961;52.156;20.942;2023-06-10T03:12:16;19.70;49.10
68924;DHT22;55961;52.156;20.942;2023-06-10T03:14:42;19.70;49.20
68924;DHT22;55961;52.156;20.942;2023-06-10T03:17:08;19.70;49.40
68924;DHT22;55961;52.156;20.942;2023-06-10T03:19:37;19.70;49.50
68924;DHT22;55961;52.156;20.942;2023-06-10T03:22:09;19.60;49.70
68924;DHT22;55961;52.156;20.942;2023-06-10T03:24:36;19.60;49.70
68924;DHT22;55961;52.156;20.942;2023-06-10T03:27:02;19.70;49.90
68924;DHT22;55961;52.156;20.942;2023-06-10T03:29:30;19.70;50.30
68924;DHT22;55961;52.156;20.942;2023-06-10T03:31:56;19.70;50.40
68924;DHT22;55961;52.156;20.942;2023-06-10T03:34:22;19.70;50.50
68924;DHT22;55961;52.156;20.942;2023-06-10T03:36:49;19.70;50.60
68924;DHT22;55961;52.156;20.942;2023-06-10T03:39:15;19.70;50.60
68924;DHT22;55961;52.156;20.942;2023-06-10T03:41:41;19.70;50.50
68924;DHT22;55961;52.156;20.942;2023-06-10T03:44:07;19.70;50.90
68924;DHT22;55961;52.156;20.942;2023-06-10T03:46:33;19.70;50.90
68924;DHT22;55961;52.156;20.942;2023-06-10T03:48:59;19.70;50.90
68924;DHT22;55961;52.156;20.942;2023-06-10T03:51:26;19.70;51.00
68924;DHT22;55961;52.156;20.942;2023-06-10T03:53:53;19.70;51.00
68924;DHT22;55961;52.156;20.942;2023-06-10T03:56:19;19.70;50.90
68924;DHT22;55961;52.156;20.942;2023-06-10T03:58:45;19.70;50.90
68924;DHT22;55961;52.156;20.942;2023-06-10T04:01:10;19.80;51.10
68924;DHT22;55961;52.156;20.942;2023-06-10T04:03:39;19.80;51.50
68924;DHT22;55961;52.156;20.942;2023-06-10T04:06:09;19.80;51.10
68924;DHT22;55961;52.156;20.942;2023-06-10T04:08:35;19.80;51.10
68924;DHT22;55961;52.156;20.942;2023-06-10T04:11:01;19.80;51.10
68924;DHT22;55961;52.156;20.942;2023-06-10T04:13:28;19.90;51.00
68924;DHT22;55961;52.156;20.942;2023-06-10T04:15:53;19.90;51.20
68924;DHT22;55961;52.156;20.942;2023-06-10T04:18:22;19.90;51.40
68924;DHT22;55961;52.156;20.942;2023-06-10T04:20:48;19.90;51.30
68924;DHT22;55961;52.156;20.942;2023-06-10T04:23:14;20.00;51.20
68924;DHT22;55961;52.156;20.942;2023-06-10T04:25:40;20.00;51.40
68924;DHT22;55961;52.156;20.942;2023-06-10T04:28:06;20.10;51.60
68924;DHT22;55961;52.156;20.942;2023-06-10T04:30:32;20.10;51.60
68924;DHT22;55961;52.156;20.942;2023-06-10T04:32:59;20.10;51.50
68924;DHT22;55961;52.156;20.942;2023-06-10T04:35:25;20.20;51.50
68924;DHT22;55961;52.156;20.942;2023-06-10T04:37:54;20.30;51.40
68924;DHT22;55961;52.156;20.942;2023-06-10T04:40:20;20.30;51.30
68924;DHT22;55961;52.156;20.942;2023-06-10T04:42:46;20.40;51.20
68924;DHT22;55961;52.156;20.942;2023-06-10T04:45:11;20.40;51.30
68924;DHT22;55961;52.156;20.942;2023-06-10T04:47:38;20.50;51.50
68924;DHT22;55961;52.156;20.942;2023-06-10T04:50:04;20.60;51.50
68924;DHT22;55961;52.156;20.942;2023-06-10T04:52:30;20.70;51.50
68924;DHT22;55961;52.156;20.942;2023-06-10T04:54:57;20.70;51.10
68924;DHT22;55961;52.156;20.942;2023-06-10T04:57:24;20.80;50.30
68924;DHT22;55961;52.156;20.942;2023-06-10T04:59:50;20.90;50.40
68924;DHT22;55961;52.156;20.942;2023-06-10T05:02:16;20.90;50.50
68924;DHT22;55961;52.156;20.942;2023-06-10T05:04:41;20.90;50.30
68924;DHT22;55961;52.156;20.942;2023-06-10T05:07:07;21.10;50.50
68924;DHT22;55961;52.156;20.942;2023-06-10T05:09:33;21.10;50.40
68924;DHT22;55961;52.156;20.942;2023-06-10T05:11:59;21.20;50.20
68924;DHT22;55961;52.156;20.942;2023-06-10T05:14:25;21.30;49.80
68924;DHT22;55961;52.156;20.942;2023-06-10T05:16:51;21.30;50.20
68924;DHT22;55961;52.156;20.942;2023-06-10T05:19:17;21.40;50.10
68924;DHT22;55961;52.156;20.942;2023-06-10T05:21:44;21.50;49.80
68924;DHT22;55961;52.156;20.942;2023-06-10T05:24:11;21.60;49.70
68924;DHT22;55961;52.156;20.942;2023-06-10T05:26:37;21.60;49.40
68924;DHT22;55961;52.156;20.942;2023-06-10T05:29:04;21.70;49.30
68924;DHT22;55961;52.156;20.942;2023-06-10T05:31:30;21.80;49.30
68924;DHT22;55961;52.156;20.942;2023-06-10T05:33:56;21.80;49.50
68924;DHT22;55961;52.156;20.942;2023-06-10T05:36:22;21.90;49.30
68924;DHT22;55961;52.156;20.942;2023-06-10T05:38:50;22.00;48.90
68924;DHT22;55961;52.156;20.942;2023-06-10T05:41:16;22.00;49.00
68924;DHT22;55961;52.156;20.942;2023-06-10T05:43:42;22.10;49.20
68924;DHT22;55961;52.156;20.942;2023-06-10T05:46:08;22.20;49.10
68924;DHT22;55961;52.156;20.942;2023-06-10T05:48:34;22.30;49.20
68924;DHT22;55961;52.156;20.942;2023-06-10T05:51:00;22.30;48.60
68924;DHT22;55961;52.156;20.942;2023-06-10T05:53:26;22.40;48.80
68924;DHT22;55961;52.156;20.942;2023-06-10T05:55:52;22.50;48.20
68924;DHT22;55961;52.156;20.942;2023-06-10T05:58:23;22.60;48.50
68924;DHT22;55961;52.156;20.942;2023-06-10T06:00:50;22.70;48.80
68924;DHT22;55961;52.156;20.942;2023-06-10T06:03:17;22.80;48.00
68924;DHT22;55961;52.156;20.942;2023-06-10T06:05:43;22.80;47.80
68924;DHT22;55961;52.156;20.942;2023-06-10T06:08:09;22.90;47.90
68924;DHT22;55961;52.156;20.942;2023-06-10T06:10:36;23.00;47.90
68924;DHT22;55961;52.156;20.942;2023-06-10T06:13:02;23.10;48.00
68924;DHT22;55961;52.156;20.942;2023-06-10T06:15:28;23.20;47.70
68924;DHT22;55961;52.156;20.942;2023-06-10T06:17:54;23.30;47.60
68924;DHT22;55961;52.156;20.942;2023-06-10T06:20:22;23.40;47.50
68924;DHT22;55961;52.156;20.942;2023-06-10T06:22:48;23.50;47.80
68924;DHT22;55961;52.156;20.942;2023-06-10T06:25:15;23.60;47.60
68924;DHT22;55961;52.156;20.942;2023-06-10T06:27:41;23.70;47.20
68924;DHT22;55961;52.156;20.942;2023-06-10T06:30:07;23.80;47.20
68924;DHT22;55961;52.156;20.942;2023-06-10T06:32:33;23.90;47.20
68924;DHT22;55961;52.156;20.942;2023-06-10T06:35:00;24.00;47.00
68924;DHT22;55961;52.156;20.942;2023-06-10T06:37:25;24.10;47.10
68924;DHT22;55961;52.156;20.942;2023-06-10T06:39:52;24.20;46.60
68924;DHT22;55961;52.156;20.942;2023-06-10T06:42:19;24.40;46.80
68924;DHT22;55961;52.156;20.942;2023-06-10T06:44:46;24.50;46.40
68924;DHT22;55961;52.156;20.942;2023-06-10T06:47:13;24.60;45.50
68924;DHT22;55961;52.156;20.942;2023-06-10T06:49:39;24.70;45.80
68924;DHT22;55961;52.156;20.942;2023-06-10T06:52:05;24.80;45.40
68924;DHT22;55961;52.156;20.942;2023-06-10T06:54:31;24.90;45.10
68924;DHT22;55961;52.156;20.942;2023-06-10T06:57:00;25.00;45.30
68924;DHT22;55961;52.156;20.942;2023-06-10T06:59:26;25.20;45.10
68924;DHT22;55961;52.156;20.942;2023-06-10T07:01:52;25.30;44.70
68924;DHT22;55961;52.156;20.942;2023-06-10T07:04:19;25.30;44.00
68924;DHT22;55961;52.156;20.942;2023-06-10T07:06:47;25.40;44.50
68924;DHT22;55961;52.156;20.942;2023-06-10T07:09:14;25.50;44.50
68924;DHT22;55961;52.156;20.942;2023-06-10T07:11:39;25.70;44.20
68924;DHT22;55961;52.156;20.942;2023-06-10T07:14:06;25.80;44.80
68924;DHT22;55961;52.156;20.942;2023-06-10T07:16:32;25.90;43.40
68924;DHT22;55961;52.156;20.942;2023-06-10T07:18:58;26.00;44.10
68924;DHT22;55961;52.156;20.942;2023-06-10T07:21:24;26.10;43.40
68924;DHT22;55961;52.156;20.942;2023-06-10T07:23:50;26.20;43.40
68924;DHT22;55961;52.156;20.942;2023-06-10T07:26:19;26.30;43.80
68924;DHT22;55961;52.156;20.942;2023-06-10T07:28:45;26.40;43.20
68924;DHT22;55961;52.156;20.942;2023-06-10T07:31:11;26.50;43.10
68924;DHT22;55961;52.156;20.942;2023-06-10T07:33:37;26.60;42.20
68924;DHT22;55961;52.156;20.942;2023-06-10T07:36:07;26.80;42.40
68924;DHT22;55961;52.156;20.942;2023-06-10T07:38:33;26.90;42.30
68924;DHT22;55961;52.156;20.942;2023-06-10T07:40:59;27.00;42.30
68924;DHT22;55961;52.156;20.942;2023-06-10T07:43:25;27.20;41.80
68924;DHT22;55961;52.156;20.942;2023-06-10T07:45:51;27.30;42.30
68924;DHT22;55961;52.156;20.942;2023-06-10T07:48:17;27.40;41.60
68924;DHT22;55961;52.156;20.942;2023-06-10T07:50:43;27.50;40.90
68924;DHT22;55961;52.156;20.942;2023-06-10T07:53:10;27.60;40.60
68924;DHT22;55961;52.156;20.942;2023-06-10T07:55:36;27.70;40.80
68924;DHT22;55961;52.156;20.942;2023-06-10T07:58:02;27.80;40.00
68924;DHT22;55961;52.156;20.942;2023-06-10T08:00:28;27.90;40.00
68924;DHT22;55961;52.156;20.942;2023-06-10T08:02:54;28.00;40.90
68924;DHT22;55961;52.156;20.942;2023-06-10T08:05:19;28.10;40.20
68924;DHT22;55961;52.156;20.942;2023-06-10T08:07:46;28.20;39.60
68924;DHT22;55961;52.156;20.942;2023-06-10T08:10:12;28.30;38.50
68924;DHT22;55961;52.156;20.942;2023-06-10T08:12:38;28.30;39.10
68924;DHT22;55961;52.156;20.942;2023-06-10T08:15:04;28.40;39.00
68924;DHT22;55961;52.156;20.942;2023-06-10T08:17:31;28.50;39.30
68924;DHT22;55961;52.156;20.942;2023-06-10T08:19:56;28.60;39.40
68924;DHT22;55961;52.156;20.942;2023-06-10T08:22:23;28.80;39.00
68924;DHT22;55961;52.156;20.942;2023-06-10T08:24:48;28.90;38.70
68924;DHT22;55961;52.156;20.942;2023-06-10T08:27:15;29.00;38.20
68924;DHT22;55961;52.156;20.942;2023-06-10T08:29:40;29.10;38.30
68924;DHT22;55961;52.156;20.942;2023-06-10T08:32:07;29.10;37.70
68924;DHT22;55961;52.156;20.942;2023-06-10T08:34:36;29.20;38.00
68924;DHT22;55961;52.156;20.942;2023-06-10T08:37:03;29.30;37.30
68924;DHT22;55961;52.156;20.942;2023-06-10T08:39:29;29.30;37.80
68924;DHT22;55961;52.156;20.942;2023-06-10T08:44:46;29.60;37.40
68924;DHT22;55961;52.156;20.942;2023-06-10T08:47:15;29.60;37.30
68924;DHT22;55961;52.156;20.942;2023-06-10T08:49:45;29.70;37.00
68924;DHT22;55961;52.156;20.942;2023-06-10T08:52:16;29.80;36.70
68924;DHT22;55961;52.156;20.942;2023-06-10T08:55:02;29.90;37.40
68924;DHT22;55961;52.156;20.942;2023-06-10T08:57:30;29.90;36.50
68924;DHT22;55961;52.156;20.942;2023-06-10T08:59:57;29.90;36.20
68924;DHT22;55961;52.156;20.942;2023-06-10T09:02:27;30.00;35.80
68924;DHT22;55961;52.156;20.942;2023-06-10T09:04:53;30.00;35.80
68924;DHT22;55961;52.156;20.942;2023-06-10T09:07:22;30.00;34.80
68924;DHT22;55961;52.156;20.942;2023-06-10T09:09:49;30.10;34.20
68924;DHT22;55961;52.156;20.942;2023-06-10T09:12:15;30.10;34.20
68924;DHT22;55961;52.156;20.942;2023-06-10T09:14:42;30.10;34.40
68924;DHT22;55961;52.156;20.942;2023-06-10T09:17:08;30.10;34.70
68924;DHT22;55961;52.156;20.942;2023-06-10T09:19:35;30.20;34.90
68924;DHT22;55961;52.156;20.942;2023-06-10T09:22:01;30.20;34.90
68924;DHT22;55961;52.156;20.942;2023-06-10T09:24:28;30.20;34.70
68924;DHT22;55961;52.156;20.942;2023-06-10T09:27:05;30.20;33.40
68924;DHT22;55961;52.156;20.942;2023-06-10T09:29:54;30.20;32.00
68924;DHT22;55961;52.156;20.942;2023-06-10T09:32:21;30.20;32.80
68924;DHT22;55961;52.156;20.942;2023-06-10T09:34:47;30.30;32.60
68924;DHT22;55961;52.156;20.942;2023-06-10T09:37:21;30.40;32.70
68924;DHT22;55961;52.156;20.942;2023-06-10T09:40:04;30.40;33.90
68924;DHT22;55961;52.156;20.942;2023-06-10T09:42:34;30.60;34.00
68924;DHT22;55961;52.156;20.942;2023-06-10T09:45:02;30.70;35.00
68924;DHT22;55961;52.156;20.942;2023-06-10T09:47:28;30.80;35.40
68924;DHT22;55961;52.156;20.942;2023-06-10T09:49:54;30.90;35.40
68924;DHT22;55961;52.156;20.942;2023-06-10T09:52:25;31.00;35.20
68924;DHT22;55961;52.156;20.942;2023-06-10T09:54:55;31.00;33.10
68924;DHT22;55961;52.156;20.942;2023-06-10T09:57:24;31.00;33.10
68924;DHT22;55961;52.156;20.942;2023-06-10T09:59:53;31.00;32.80
68924;DHT22;55961;52.156;20.942;2023-06-10T10:02:20;31.00;33.20
68924;DHT22;55961;52.156;20.942;2023-06-10T10:04:47;31.00;32.50
68924;DHT22;55961;52.156;20.942;2023-06-10T10:07:13;31.00;33.00
68924;DHT22;55961;52.156;20.942;2023-06-10T10:09:40;31.00;30.50
68924;DHT22;55961;52.156;20.942;2023-06-10T10:12:13;31.00;31.00
68924;DHT22;55961;52.156;20.942;2023-06-10T10:14:45;31.00;30.90
68924;DHT22;55961;52.156;20.942;2023-06-10T10:17:14;31.10;31.00
68924;DHT22;55961;52.156;20.942;2023-06-10T10:19:46;31.10;32.10
68924;DHT22;55961;52.156;20.942;2023-06-10T10:22:29;31.20;32.60
68924;DHT22;55961;52.156;20.942;2023-06-10T10:25:02;31.20;32.40
68924;DHT22;55961;52.156;20.942;2023-06-10T10:27:35;31.30;32.70
68924;DHT22;55961;52.156;20.942;2023-06-10T10:30:02;31.30;32.10
68924;DHT22;55961;52.156;20.942;2023-06-10T10:32:38;31.40;31.40
68924;DHT22;55961;52.156;20.942;2023-06-10T10:35:17;31.50;31.10
68924;DHT22;55961;52.156;20.942;2023-06-10T10:37:47;31.50;30.90
68924;DHT22;55961;52.156;20.942;2023-06-10T10:40:15;31.60;29.00
68924;DHT22;55961;52.156;20.942;2023-06-10T10:42:42;31.60;30.40
68924;DHT22;55961;52.156;20.942;2023-06-10T10:45:09;31.70;30.80
68924;DHT22;55961;52.156;20.942;2023-06-10T10:47:36;31.70;31.00
68924;DHT22;55961;52.156;20.942;2023-06-10T10:50:16;31.80;31.20
68924;DHT22;55961;52.156;20.942;2023-06-10T10:52:57;31.90;30.70
68924;DHT22;55961;52.156;20.942;2023-06-10T10:55:25;32.00;30.30
68924;DHT22;55961;52.156;20.942;2023-06-10T11:00:31;32.20;29.90
68924;DHT22;55961;52.156;20.942;2023-06-10T11:02:59;32.30;29.50
68924;DHT22;55961;52.156;20.942;2023-06-10T11:05:52;32.40;29.60
68924;DHT22;55961;52.156;20.942;2023-06-10T11:10:59;32.40;28.50
68924;DHT22;55961;52.156;20.942;2023-06-10T11:13:26;32.50;27.60
68924;DHT22;55961;52.156;20.942;2023-06-10T11:15:57;32.40;27.80
68924;DHT22;55961;52.156;20.942;2023-06-10T11:18:28;32.40;28.40
68924;DHT22;55961;52.156;20.942;2023-06-10T11:21:12;32.30;29.00
68924;DHT22;55961;52.156;20.942;2023-06-10T11:23:39;32.30;28.60
68924;DHT22;55961;52.156;20.942;2023-06-10T11:31:19;32.30;28.80
68924;DHT22;55961;52.156;20.942;2023-06-10T11:33:55;32.40;28.40
68924;DHT22;55961;52.156;20.942;2023-06-10T11:36:24;32.50;29.60
68924;DHT22;55961;52.156;20.942;2023-06-10T11:39:13;32.60;29.90
68924;DHT22;55961;52.156;20.942;2023-06-10T11:41:40;32.80;28.90
68924;DHT22;55961;52.156;20.942;2023-06-10T11:44:10;32.90;28.60
68924;DHT22;55961;52.156;20.942;2023-06-10T11:46:37;33.00;28.20
68924;DHT22;55961;52.156;20.942;2023-06-10T11:49:04;33.10;26.80
68924;DHT22;55961;52.156;20.942;2023-06-10T11:51:35;33.20;27.10
68924;DHT22;55961;52.156;20.942;2023-06-10T11:54:03;33.30;27.80
68924;DHT22;55961;52.156;20.942;2023-06-10T11:56:30;33.30;28.30
68924;DHT22;55961;52.156;20.942;2023-06-10T11:59:07;33.40;28.60
68924;DHT22;55961;52.156;20.942;2023-06-10T12:01:34;33.40;28.40
68924;DHT22;55961;52.156;20.942;2023-06-10T12:04:04;33.40;27.70
68924;DHT22;55961;52.156;20.942;2023-06-10T12:06:45;33.40;27.70
68924;DHT22;55961;52.156;20.942;2023-06-10T12:09:26;33.50;28.20
68924;DHT22;55961;52.156;20.942;2023-06-10T12:12:04;33.60;29.20
68924;DHT22;55961;52.156;20.942;2023-06-10T12:14:54;33.60;29.90
68924;DHT22;55961;52.156;20.942;2023-06-10T12:17:21;33.70;29.50
68924;DHT22;55961;52.156;20.942;2023-06-10T12:19:49;33.70;29.20
68924;DHT22;55961;52.156;20.942;2023-06-10T12:22:15;33.70;28.50
68924;DHT22;55961;52.156;20.942;2023-06-10T12:25:01;33.70;28.50
68924;DHT22;55961;52.156;20.942;2023-06-10T12:27:29;33.70;27.90
68924;DHT22;55961;52.156;20.942;2023-06-10T12:29:57;33.70;29.00
68924;DHT22;55961;52.156;20.942;2023-06-10T12:32:41;33.70;29.50
68924;DHT22;55961;52.156;20.942;2023-06-10T12:35:08;33.70;28.80
68924;DHT22;55961;52.156;20.942;2023-06-10T12:37:35;33.70;28.10
68924;DHT22;55961;52.156;20.942;2023-06-10T12:40:03;33.80;28.10
68924;DHT22;55961;52.156;20.942;2023-06-10T12:42:32;33.80;29.00
68924;DHT22;55961;52.156;20.942;2023-06-10T12:45:02;33.70;29.50
68924;DHT22;55961;52.156;20.942;2023-06-10T12:47:36;33.80;29.10
68924;DHT22;55961;52.156;20.942;2023-06-10T12:50:05;33.80;29.60
68924;DHT22;55961;52.156;20.942;2023-06-10T12:52:31;33.80;29.70
68924;DHT22;55961;52.156;20.942;2023-06-10T12:54:58;33.70;29.60
68924;DHT22;55961;52.156;20.942;2023-06-10T12:57:26;33.80;28.50
68924;DHT22;55961;52.156;20.942;2023-06-10T12:59:52;33.80;29.30
68924;DHT22;55961;52.156;20.942;2023-06-10T13:02:21;33.90;30.20
68924;DHT22;55961;52.156;20.942;2023-06-10T13:04:50;33.90;30.20
68924;DHT22;55961;52.156;20.942;2023-06-10T13:07:16;33.90;30.70
68924;DHT22;55961;52.156;20.942;2023-06-10T13:09:43;34.00;30.50
68924;DHT22;55961;52.156;20.942;2023-06-10T13:12:09;34.00;30.10
68924;DHT22;55961;52.156;20.942;2023-06-10T13:14:36;33.90;29.30
68924;DHT22;55961;52.156;20.942;2023-06-10T13:17:05;33.70;29.30
68924;DHT22;55961;52.156;20.942;2023-06-10T13:19:33;33.60;28.70
68924;DHT22;55961;52.156;20.942;2023-06-10T13:21:59;33.50;29.00
68924;DHT22;55961;52.156;20.942;2023-06-10T13:24:25;33.40;30.40
68924;DHT22;55961;52.156;20.942;2023-06-10T13:26:51;33.50;31.30
68924;DHT22;55961;52.156;20.942;2023-06-10T13:29:17;33.50;31.30
68924;DHT22;55961;52.156;20.942;2023-06-10T13:31:43;33.60;30.30
68924;DHT22;55961;52.156;20.942;2023-06-10T13:34:10;33.60;30.40
68924;DHT22;55961;52.156;20.942;2023-06-10T13:36:36;33.70;30.10
68924;DHT22;55961;52.156;20.942;2023-06-10T13:39:02;33.80;30.40
68924;DHT22;55961;52.156;20.942;2023-06-10T13:41:28;33.80;30.30
68924;DHT22;55961;52.156;20.942;2023-06-10T13:43:55;33.90;30.40
68924;DHT22;55961;52.156;20.942;2023-06-10T13:46:21;34.10;30.00
68924;DHT22;55961;52.156;20.942;2023-06-10T13:48:47;34.10;31.00
68924;DHT22;55961;52.156;20.942;2023-06-10T13:51:13;34.10;31.50
68924;DHT22;55961;52.156;20.942;2023-06-10T13:53:39;34.10;31.60
68924;DHT22;55961;52.156;20.942;2023-06-10T13:56:05;33.90;31.60
68924;DHT22;55961;52.156;20.942;2023-06-10T13:58:31;33.70;31.50
68924;DHT22;55961;52.156;20.942;2023-06-10T14:00:57;33.50;31.40
68924;DHT22;55961;52.156;20.942;2023-06-10T14:03:24;33.40;31.20
68924;DHT22;55961;52.156;20.942;2023-06-10T14:05:50;33.20;31.60
68924;DHT22;55961;52.156;20.942;2023-06-10T14:08:16;33.00;32.40
68924;DHT22;55961;52.156;20.942;2023-06-10T14:10:43;32.90;32.20
68924;DHT22;55961;52.156;20.942;2023-06-10T14:13:09;32.70;31.40
68924;DHT22;55961;52.156;20.942;2023-06-10T14:15:34;32.50;32.40
68924;DHT22;55961;52.156;20.942;2023-06-10T14:18:01;32.20;33.00
68924;DHT22;55961;52.156;20.942;2023-06-10T14:20:27;32.00;32.20
68924;DHT22;55961;52.156;20.942;2023-06-10T14:22:57;31.80;32.40
68924;DHT22;55961;52.156;20.942;2023-06-10T14:25:24;31.80;32.70
68924;DHT22;55961;52.156;20.942;2023-06-10T14:27:51;31.80;32.40
68924;DHT22;55961;52.156;20.942;2023-06-10T14:30:17;31.80;32.80
68924;DHT22;55961;52.156;20.942;2023-06-10T14:32:43;31.90;33.60
68924;DHT22;55961;52.156;20.942;2023-06-10T14:35:09;31.90;34.00
68924;DHT22;55961;52.156;20.942;2023-06-10T14:37:35;32.00;34.50
68924;DHT22;55961;52.156;20.942;2023-06-10T14:40:06;32.00;34.30
68924;DHT22;55961;52.156;20.942;2023-06-10T14:42:32;32.10;34.10
68924;DHT22;55961;52.156;20.942;2023-06-10T14:44:58;32.10;34.10
68924;DHT22;55961;52.156;20.942;2023-06-10T14:47:24;32.00;34.50
68924;DHT22;55961;52.156;20.942;2023-06-10T14:49:50;31.90;34.50
68924;DHT22;55961;52.156;20.942;2023-06-10T14:52:16;31.90;34.70
68924;DHT22;55961;52.156;20.942;2023-06-10T14:54:42;31.80;34.20
68924;DHT22;55961;52.156;20.942;2023-06-10T14:57:08;31.60;34.30
68924;DHT22;55961;52.156;20.942;2023-06-10T14:59:34;31.50;34.30
68924;DHT22;55961;52.156;20.942;2023-06-10T15:02:00;31.50;33.90
68924;DHT22;55961;52.156;20.942;2023-06-10T15:04:27;31.40;33.20
68924;DHT22;55961;52.156;20.942;2023-06-10T15:06:54;31.20;33.60
68924;DHT22;55961;52.156;20.942;2023-06-10T15:09:19;31.20;33.90
68924;DHT22;55961;52.156;20.942;2023-06-10T15:11:46;31.10;34.70
68924;DHT22;55961;52.156;20.942;2023-06-10T15:14:12;31.10;34.90
68924;DHT22;55961;52.156;20.942;2023-06-10T15:16:38;31.10;34.10
68924;DHT22;55961;52.156;20.942;2023-06-10T15:19:04;31.10;34.10
68924;DHT22;55961;52.156;20.942;2023-06-10T15:21:32;31.10;34.30
68924;DHT22;55961;52.156;20.942;2023-06-10T15:23:58;31.00;34.30
68924;DHT22;55961;52.156;20.942;2023-06-10T15:26:24;31.00;34.00
68924;DHT22;55961;52.156;20.942;2023-06-10T15:28:50;30.90;34.20
68924;DHT22;55961;52.156;20.942;2023-06-10T15:31:17;30.80;34.60
68924;DHT22;55961;52.156;20.942;2023-06-10T15:33:45;30.70;35.00
68924;DHT22;55961;52.156;20.942;2023-06-10T15:36:11;30.60;35.30